Time;durP1;ratioP1;P1;durP2;ratioP2;P2;SDS_P1;SDS_P2;PMS_P1;PMS_P2;Temp;Humidity;BMP_temperature;BMP_pressure;BME280_temperature;BME280_humidity;BME280_pressure;Samples;Min_cycle;Max_cycle;Signal;HPM_P1;HPM_P2
2024/01/10 00:00:47;;;;;;;;;;;;;;;;;;6334987;28;20012;-75
2024/01/10 00:03:47;;;;;;;1.00;1.00;;;;;;;;;;6336062;28;20282;-76
2024/01/10 00:06:47;;;;;;;;;;;;;;;;;;6332580;28;20047;-75
2024/01/10 00:09:47;;;;;;;0.80;0.80;;;;;;;;;;6340330;28;20332;-75
2024/01/10 00:12:47;;;;;;;;;;;;;;;;;;6333410;28;20024;-75
2024/01/10 00:15:48;;;;;;;0.90;0.90;;;;;;;;;;6336448;28;19911;-75
2024/01/10 00:18:48;;;;;;;;;;;;;;;;;;6314994;28;20470;-76
2024/01/10 00:21:48;;;;;;;0.90;0.90;;;;;;;;;;6317615;28;20036;-76
2024/01/10 00:24:48;;;;;;;;;;;;;;;;;;6316496;28;20053;-75
2024/01/10 00:27:48;;;;;;;0.80;0.80;;;;;;;;;;6318891;28;19954;-76
2024/01/10 00:30:49;;;;;;;;;;;;;;;;;;6326065;28;20030;-76
2024/01/10 00:33:49;;;;;;;0.73;0.73;;;;;;;;;;6321758;28;20327;-76
2024/01/10 00:36:50;;;;;;;;;;;;;;;;;;6333648;28;20028;-76
2024/01/10 00:39:50;;;;;;;1.10;1.10;;;;;;;;;;6315532;28;19988;-76
2024/01/10 00:42:50;;;;;;;;;;;;;;;;;;6309428;28;20501;-76
2024/01/10 00:45:50;;;;;;;0.70;0.70;;;;;;;;;;6323710;28;20441;-76
2024/01/10 00:48:50;;;;;;;;;;;;;;;;;;6333482;28;20016;-76
2024/01/10 00:51:50;;;;;;;0.80;0.80;;;;;;;;;;6305399;28;20204;-76
2024/01/10 00:54:50;;;;;;;;;;;;;;;;;;6316154;28;20039;-76
2024/01/10 00:57:51;;;;;;;0.70;0.70;;;;;;;;;;6322128;28;20270;-76
2024/01/10 01:00:51;;;;;;;;;;;;;;;;;;6307690;28;20043;-76
2024/01/10 01:03:51;;;;;;;0.65;0.65;;;;;;;;;;6299942;28;19907;-76
2024/01/10 01:06:51;;;;;;;;;;;;;;;;;;6329264;28;20016;-76
2024/01/10 01:09:52;;;;;;;0.80;0.80;;;;;;;;;;6314256;28;19912;-76
2024/01/10 01:12:52;;;;;;;;;;;;;;;;;;6299420;28;20204;-76
2024/01/10 01:15:52;;;;;;;0.80;0.80;;;;;;;;;;6302188;28;19966;-71
2024/01/10 01:18:52;;;;;;;;;;;;;;;;;;6312434;28;20102;-70
2024/01/10 01:21:53;;;;;;;0.80;0.80;;;;;;;;;;6324835;28;19916;-70
2024/01/10 01:24:53;;;;;;;1.10;1.10;;;;;;;;;;6316929;28;20319;-70
2024/01/10 01:27:53;;;;;;;1.00;1.00;;;;;;;;;;6318728;28;20317;-70
2024/01/10 01:30:53;;;;;;;1.00;1.00;;;;;;;;;;6324616;28;20593;-70
2024/01/10 01:33:53;;;;;;;;;;;;;;;;;;6313968;28;20043;-72
2024/01/10 01:36:54;;;;;;;0.85;0.85;;;;;;;;;;6325765;28;20359;-71
2024/01/10 01:39:54;;;;;;;0.90;0.90;;;;;;;;;;6309788;28;20764;-70
2024/01/10 01:42:54;;;;;;;0.97;0.97;;;;;;;;;;6320204;28;20262;-70
2024/01/10 01:45:55;;;;;;;0.70;0.70;;;;;;;;;;6334100;28;20253;-72
2024/01/10 01:48:55;;;;;;;0.85;0.85;;;;;;;;;;6312334;28;20707;-71
2024/01/10 01:51:55;;;;;;;;;;;;;;;;;;6321268;28;20478;-71
2024/01/10 01:54:55;;;;;;;0.90;0.90;;;;;;;;;;6314415;28;19922;-70
2024/01/10 01:57:56;;;;;;;;;;;;;;;;;;6317642;28;20027;-71
2024/01/10 02:00:56;;;;;;;1.10;1.10;;;;;;;;;;6313482;28;19912;-71
2024/01/10 02:03:56;;;;;;;0.73;0.73;;;;;;;;;;6331965;28;20671;-71
2024/01/10 02:06:57;;;;;;;0.80;0.80;;;;;;;;;;6330168;28;20031;-76
2024/01/10 02:09:57;;;;;;;;;;;;;;;;;;6325049;28;20024;-76
2024/01/10 02:12:57;;;;;;;0.80;0.80;;;;;;;;;;6306215;28;20358;-76
2024/01/10 02:15:57;;;;;;;;;;;;;;;;;;6320292;28;20752;-76
2024/01/10 02:18:57;;;;;;;0.80;0.80;;;;;;;;;;6327044;28;19907;-76
2024/01/10 02:21:58;;;;;;;;;;;;;;;;;;6317126;28;20090;-77
2024/01/10 02:24:58;;;;;;;0.80;0.80;;;;;;;;;;6321355;28;19958;-76
2024/01/10 02:27:58;;;;;;;0.68;0.68;;;;;;;;;;6325034;28;20293;-76
2024/01/10 02:30:58;;;;;;;;;;;;;;;;;;6327450;28;20036;-76
2024/01/10 02:33:58;;;;;;;1.18;1.18;;;;;;;;;;6307541;28;19916;-76
2024/01/10 02:36:59;;;;;;;;;;;;;;;;;;6304298;28;20042;-76
2024/01/10 02:39:59;;;;;;;0.68;0.68;;;;;;;;;;6328155;28;19986;-76
2024/01/10 02:42:59;;;;;;;;;;;;;;;;;;6338195;28;20020;-76
2024/01/10 02:45:59;;;;;;;0.77;0.77;;;;;;;;;;6335480;28;19912;-76
2024/01/10 02:48:59;;;;;;;;;;;;;;;;;;6330030;28;20024;-76
2024/01/10 02:52:00;;;;;;;1.13;1.13;;;;;;;;;;6320857;28;20325;-76
2024/01/10 02:55:00;;;;;;;;;;;;;;;;;;6318560;28;20024;-76
2024/01/10 02:58:00;;;;;;;1.00;1.00;;;;;;;;;;6320077;28;20059;-76
2024/01/10 03:01:01;;;;;;;;;;;;;;;;;;6313035;28;20034;-76
2024/01/10 03:04:01;;;;;;;1.15;1.15;;;;;;;;;;6325136;28;19978;-76
2024/01/10 03:07:01;;;;;;;;;;;;;;;;;;6337050;28;20084;-76
2024/01/10 03:10:02;;;;;;;1.00;1.00;;;;;;;;;;6327645;28;19912;-76
2024/01/10 03:13:02;;;;;;;;;;;;;;;;;;6327747;28;20274;-76
2024/01/10 03:16:03;;;;;;;1.00;1.00;;;;;;;;;;6331843;28;20353;-76
2024/01/10 03:19:03;;;;;;;;;;;;;;;;;;6335904;28;20090;-76
2024/01/10 03:22:03;;;;;;;0.90;0.90;;;;;;;;;;6331846;28;20392;-76
2024/01/10 03:25:03;;;;;;;;;;;;;;;;;;6315380;28;20017;-76
2024/01/10 03:28:03;;;;;;;1.02;1.02;;;;;;;;;;6313613;28;20442;-76
2024/01/10 03:31:03;;;;;;;;;;;;;;;;;;6312593;28;20020;-76
2024/01/10 03:34:04;;;;;;;;;;;;;;;;;;6314528;28;19904;-76
2024/01/10 03:37:04;;;;;;;;;;;;;;;;;;6300150;28;19912;-75
2024/01/10 03:40:04;;;;;;;;;;;;;;;;;;6291561;28;19904;-75
2024/01/10 03:43:04;;;;;;;;;;;;;;;;;;6301853;28;19908;-75
2024/01/10 03:46:05;;;;;;;;;;;;;;;;;;6307158;28;19904;-76
2024/01/10 03:49:06;;;;;;;;;;;;;;;;;;6302385;28;19936;-76
2024/01/10 03:52:06;;;;;;;;;;;;;;;;;;6284010;28;20295;-76
2024/01/10 03:55:06;;;;;;;;;;;;;;;;;;6299513;28;19967;-70
2024/01/10 03:58:06;;;;;;;;;;;;;;;;;;6291115;28;19909;-71
2024/01/10 04:01:06;;;;;;;;;;;;;;;;;;6295479;28;20014;-71
2024/01/10 04:04:06;;;;;;;;;;;;;;;;;;6276621;28;19952;-77
2024/01/10 04:07:07;;;;;;;;;;;;;;;;;;6295616;28;20032;-77
2024/01/10 04:10:10;;;;;;;;;;;;;;;;;;6294241;28;19931;-78
2024/01/10 04:13:10;;;;;;;;;;;;;;;;;;6288555;28;20270;-78
2024/01/10 04:16:10;;;;;;;;;;;;;;;;;;6298625;28;19912;-78
2024/01/10 04:19:10;;;;;;;;;;;;;;;;;;6289660;28;19908;-75
2024/01/10 04:22:10;;;;;;;;;;;;;;;;;;6288490;28;19978;-75
2024/01/10 04:25:10;;;;;;;;;;;;;;;;;;6287897;28;19915;-75
2024/01/10 04:28:10;;;;;;;;;;;;;;;;;;6299377;28;19916;-76
2024/01/10 04:31:10;;;;;;;;;;;;;;;;;;6317437;28;19986;-75
2024/01/10 04:34:11;;;;;;;;;;;;;;;;;;6300058;28;19908;-75
2024/01/10 04:37:11;;;;;;;;;;;;;;;;;;6327052;28;19911;-75
2024/01/10 04:40:11;;;;;;;;;;;;;;;;;;6325144;28;19939;-75
2024/01/10 04:43:11;;;;;;;;;;;;;;;;;;6313791;28;20357;-75
2024/01/10 04:46:11;;;;;;;;;;;;;;;;;;6322835;28;19999;-75
2024/01/10 04:49:11;;;;;;;;;;;;;;;;;;6299792;28;19918;-75
2024/01/10 04:52:12;;;;;;;;;;;;;;;;;;6329313;28;19945;-75
2024/01/10 04:55:12;;;;;;;;;;;;;;;;;;6321557;28;19912;-75
2024/01/10 04:58:12;;;;;;;;;;;;;;;;;;6299863;28;20362;-76
2024/01/10 05:01:12;;;;;;;;;;;;;;;;;;6307761;28;19994;-75
2024/01/10 05:04:13;;;;;;;;;;;;;;;;;;6302076;28;19918;-75
2024/01/10 05:07:13;;;;;;;;;;;;;;;;;;6327227;28;19912;-75
2024/01/10 05:10:13;;;;;;;;;;;;;;;;;;6311676;28;19907;-75
2024/01/10 05:13:13;;;;;;;;;;;;;;;;;;6341389;28;19907;-75
2024/01/10 05:16:13;;;;;;;;;;;;;;;;;;6310007;28;19916;-70
2024/01/10 05:19:13;;;;;;;;;;;;;;;;;;6319132;28;19919;-71
2024/01/10 05:22:13;;;;;;;;;;;;;;;;;;6324265;28;19919;-71
2024/01/10 05:25:14;;;;;;;;;;;;;;;;;;6310813;28;19919;-70
2024/01/10 05:28:14;;;;;;;;;;;;;;;;;;6289675;28;20306;-70
2024/01/10 05:31:14;;;;;;;;;;;;;;;;;;6307083;28;19998;-70
2024/01/10 05:34:14;;;;;;;;;;;;;;;;;;6310415;28;19915;-71
2024/01/10 05:37:14;;;;;;;;;;;;;;;;;;6322535;28;19912;-71
2024/01/10 05:40:14;;;;;;;;;;;;;;;;;;6310196;28;20338;-70
2024/01/10 05:43:15;;;;;;;;;;;;;;;;;;6321758;28;19908;-70
2024/01/10 05:46:16;;;;;;;;;;;;;;;;;;6327211;28;19978;-70
2024/01/10 05:49:16;;;;;;;;;;;;;;;;;;6314143;28;19908;-70
2024/01/10 05:52:16;;;;;;;;;;;;;;;;;;6324718;28;19915;-70
2024/01/10 05:55:16;;;;;;;;;;;;;;;;;;6319272;28;19915;-71
2024/01/10 05:58:16;;;;;;;;;;;;;;;;;;6324444;28;19908;-70
2024/01/10 06:01:17;;;;;;;;;;;;;;;;;;6314497;28;19916;-71
2024/01/10 06:04:17;;;;;;;;;;;;;;;;;;6329306;28;19957;-70
2024/01/10 06:07:17;;;;;;;;;;;;;;;;;;6321149;28;19909;-71
2024/01/10 06:10:17;;;;;;;;;;;;;;;;;;6306240;28;19951;-70
2024/01/10 06:13:17;;;;;;;;;;;;;;;;;;6306180;28;19996;-70
2024/01/10 06:16:17;;;;;;;;;;;;;;;;;;6303971;28;20378;-70
2024/01/10 06:19:18;;;;;;;;;;;;;;;;;;6320317;28;19919;-70
2024/01/10 06:22:18;;;;;;;;;;;;;;;;;;6318541;28;19923;-70
2024/01/10 06:25:18;;;;;;;;;;;;;;;;;;6318178;28;19979;-75
2024/01/10 06:28:19;;;;;;;;;;;;;;;;;;6299075;28;19930;-77
2024/01/10 06:31:20;;;;;;;;;;;;;;;;;;6298027;28;19956;-77
2024/01/10 06:34:20;;;;;;;;;;;;;;;;;;6297509;28;19915;-76
2024/01/10 06:37:20;;;;;;;;;;;;;;;;;;6294583;28;20285;-76
2024/01/10 06:40:21;;;;;;;;;;;;;;;;;;6279085;28;19920;-76
2024/01/10 06:43:21;;;;;;;;;;;;;;;;;;6281501;28;19971;-77
2024/01/10 06:46:21;;;;;;;;;;;;;;;;;;6294709;28;19912;-76
2024/01/10 06:49:22;;;;;;;;;;;;;;;;;;6302258;28;19908;-77
2024/01/10 06:52:22;;;;;;;;;;;;;;;;;;6304147;28;19909;-76
2024/01/10 06:55:24;;;;;;;;;;;;;;;;;;6290210;28;19999;-76
2024/01/10 06:58:24;;;;;;;;;;;;;;;;;;6304627;28;19938;-76
2024/01/10 07:01:24;;;;;;;;;;;;;;;;;;6289955;28;19912;-76
2024/01/10 07:04:24;;;;;;;;;;;;;;;;;;6300748;28;19912;-74
2024/01/10 07:07:24;;;;;;;;;;;;;;;;;;6294772;28;19909;-74
2024/01/10 07:10:28;;;;;;;;;;;;;;;;;;6308148;28;19916;-75
2024/01/10 07:13:28;;;;;;;;;;;;;;;;;;6306818;28;20347;-75
2024/01/10 07:16:28;;;;;;;;;;;;;;;;;;6293564;28;19912;-75
2024/01/10 07:19:28;;;;;;;;;;;;;;;;;;6303050;28;19911;-75
2024/01/10 07:22:28;;;;;;;;;;;;;;;;;;6292482;28;19920;-74
2024/01/10 07:25:29;;;;;;;;;;;;;;;;;;6294944;28;19964;-75
2024/01/10 07:28:29;;;;;;;;;;;;;;;;;;6314911;28;20438;-75
2024/01/10 07:31:29;;;;;;;;;;;;;;;;;;6307749;28;19916;-74
2024/01/10 07:34:29;;;;;;;;;;;;;;;;;;6320197;28;19994;-74
2024/01/10 07:37:29;;;;;;;;;;;;;;;;;;6317028;28;19916;-75
2024/01/10 07:40:29;;;;;;;;;;;;;;;;;;6315417;28;20297;-75
2024/01/10 07:43:29;;;;;;;;;;;;;;;;;;6319767;28;20403;-74
2024/01/10 07:46:30;;;;;;;;;;;;;;;;;;6315800;28;19962;-70
2024/01/10 07:49:30;;;;;;;;;;;;;;;;;;6318774;28;20382;-70
2024/01/10 07:52:30;;;;;;;;;;;;;;;;;;6319439;28;20354;-69
2024/01/10 07:55:30;;;;;;;;;;;;;;;;;;6310502;28;19908;-70
2024/01/10 07:58:31;;;;;;;;;;;;;;;;;;6305667;28;19930;-69
2024/01/10 08:01:31;;;;;;;;;;;;;;;;;;6318888;28;19961;-69
2024/01/10 08:04:31;;;;;;;;;;;;;;;;;;6318654;28;19908;-69
2024/01/10 08:07:32;;;;;;;;;;;;;;;;;;6309809;28;19908;-70
2024/01/10 08:10:32;;;;;;;;;;;;;;;;;;6318427;28;19912;-69
2024/01/10 08:13:32;;;;;;;;;;;;;;;;;;6305508;28;19915;-70
2024/01/10 08:16:33;;;;;;;;;;;;;;;;;;6312386;28;19939;-69
2024/01/10 08:19:33;;;;;;;;;;;;;;;;;;6313616;28;20400;-69
2024/01/10 08:22:33;;;;;;;;;;;;;;;;;;6319618;28;20357;-69
2024/01/10 08:25:33;;;;;;;;;;;;;;;;;;6318032;28;20271;-69
2024/01/10 08:28:33;;;;;;;;;;;;;;;;;;6314972;28;19938;-71
2024/01/10 08:31:33;;;;;;;;;;;;;;;;;;6308292;28;20298;-70
2024/01/10 08:34:34;;;;;;;;;;;;;;;;;;6312616;28;20364;-69
2024/01/10 08:37:34;;;;;;;;;;;;;;;;;;6298685;28;19912;-70
2024/01/10 08:40:34;;;;;;;;;;;;;;;;;;6299891;28;20286;-70
2024/01/10 08:43:34;;;;;;;;;;;;;;;;;;6317234;28;19919;-72
2024/01/10 08:46:34;;;;;;;;;;;;;;;;;;6314521;28;19947;-70
2024/01/10 08:49:34;;;;;;;;;;;;;;;;;;6317303;28;19912;-70
2024/01/10 08:52:35;;;;;;;;;;;;;;;;;;6314861;28;19911;-69
2024/01/10 08:55:36;;;;;;;;;;;;;;;;;;6291725;28;19944;-70
2024/01/10 08:58:37;;;;;;;;;;;;;;;;;;6309656;28;20267;-70
2024/01/10 09:01:38;;;;;;;;;;;;;;;;;;6314704;28;20370;-70
2024/01/10 09:04:39;;;;;;;;;;;;;;;;;;6300564;28;19919;-74
2024/01/10 09:07:39;;;;;;;;;;;;;;;;;;6306124;28;19915;-74
2024/01/10 09:10:39;;;;;;;;;;;;;;;;;;6310291;28;19916;-75
2024/01/10 09:13:40;;;;;;;;;;;;;;;;;;6311360;28;19965;-75
2024/01/10 09:16:40;;;;;;;;;;;;;;;;;;6296768;28;19916;-76
2024/01/10 09:19:40;;;;;;;;;;;;;;;;;;6315823;28;19919;-75
2024/01/10 09:22:40;;;;;;;;;;;;;;;;;;6312362;28;20365;-74
2024/01/10 09:25:41;;;;;;;;;;;;;;;;;;6311078;28;19998;-74
2024/01/10 09:28:41;;;;;;;;;;;;;;;;;;6314810;28;19919;-74
2024/01/10 09:31:41;;;;;;;;;;;;;;;;;;6308419;28;19919;-74
2024/01/10 09:34:41;;;;;;;;;;;;;;;;;;6302911;28;20325;-74
2024/01/10 09:37:41;;;;;;;;;;;;;;;;;;6316109;28;19919;-74
2024/01/10 09:40:42;;;;;;;;;;;;;;;;;;6310904;28;19904;-74
2024/01/10 09:43:42;;;;;;;;;;;;;;;;;;6308912;28;19995;-74
2024/01/10 09:46:43;;;;;;;;;;;;;;;;;;6318730;28;19903;-74
2024/01/10 09:49:45;;;;;;;;;;;;;;;;;;6313233;28;19908;-74
2024/01/10 09:52:46;;;;;;;;;;;;;;;;;;6324638;28;19912;-74
2024/01/10 09:55:46;;;;;;;;;;;;;;;;;;6324430;28;19923;-74
2024/01/10 09:58:46;;;;;;;;;;;;;;;;;;6308532;28;20285;-74
2024/01/10 10:01:46;;;;;;;;;;;;;;;;;;6323510;28;19908;-74
2024/01/10 10:04:46;;;;;;;;;;;;;;;;;;6317521;28;20377;-74
2024/01/10 10:07:46;;;;;;;;;;;;;;;;;;6315870;28;19988;-74
2024/01/10 10:10:46;;;;;;;;;;;;;;;;;;6308938;28;19916;-74
2024/01/10 10:13:46;;;;;;;;;;;;;;;;;;6293879;28;20275;-74
2024/01/10 10:16:47;;;;;;;;;;;;;;;;;;6308383;28;20024;-72
2024/01/10 10:19:47;;;;;;;;;;;;;;;;;;6316000;28;19956;-72
2024/01/10 10:22:47;;;;;;;;;;;;;;;;;;6312788;28;19908;-72
2024/01/10 10:25:48;;;;;;;;;;;;;;;;;;6314629;28;20007;-74
2024/01/10 10:28:48;;;;;;;;;;;;;;;;;;6309018;28;19938;-73
2024/01/10 10:31:48;;;;;;;;;;;;;;;;;;6314200;28;19904;-74
2024/01/10 10:34:48;;;;;;;;;;;;;;;;;;6313709;28;19920;-73
2024/01/10 10:37:49;;;;;;;;;;;;;;;;;;6309224;28;19904;-73
2024/01/10 10:40:50;;;;;;;;;;;;;;;;;;6315500;28;20434;-72
2024/01/10 10:43:50;;;;;;;;;;;;;;;;;;6314219;28;19916;-72
2024/01/10 10:46:50;;;;;;;;;;;;;;;;;;6313847;28;19916;-72
2024/01/10 10:49:50;;;;;;;;;;;;;;;;;;6304109;28;20045;-72
2024/01/10 10:52:50;;;;;;;;;;;;;;;;;;6316448;28;19956;-72
2024/01/10 10:55:50;;;;;;;;;;;;;;;;;;6309585;28;19972;-72
2024/01/10 10:58:51;;;;;;;;;;;;;;;;;;6309750;28;19919;-72
2024/01/10 11:01:52;;;;;;;;;;;;;;;;;;6307790;28;19908;-74
2024/01/10 11:04:52;;;;;;;;;;;;;;;;;;6316828;28;19911;-73
2024/01/10 11:07:52;;;;;;;;;;;;;;;;;;6318595;28;19912;-73
2024/01/10 11:10:52;;;;;;;;;;;;;;;;;;6316623;28;19961;-74
2024/01/10 11:13:52;;;;;;;;;;;;;;;;;;6313805;28;19915;-73
2024/01/10 11:16:53;;;;;;;;;;;;;;;;;;6317565;28;20386;-74
2024/01/10 11:19:55;;;;;;;;;;;;;;;;;;6306893;28;20390;-73
2024/01/10 11:22:55;;;;;;;;;;;;;;;;;;6302953;28;20370;-74
2024/01/10 11:25:55;;;;;;;;;;;;;;;;;;6306688;28;19919;-74
2024/01/10 11:28:56;;;;;;;;;;;;;;;;;;6309576;28;19947;-74
2024/01/10 11:31:56;;;;;;;;;;;;;;;;;;6304012;28;19931;-74
2024/01/10 11:34:56;;;;;;;;;;;;;;;;;;6312263;28;19941;-74
2024/01/10 11:37:56;;;;;;;;;;;;;;;;;;6308836;28;20374;-74
2024/01/10 11:40:56;;;;;;;;;;;;;;;;;;6318562;28;19912;-74
2024/01/10 11:43:56;;;;;;;;;;;;;;;;;;6320180;28;20036;-74
2024/01/10 11:46:56;;;;;;;;;;;;;;;;;;6320492;28;19964;-74
2024/01/10 11:49:56;;;;;;;;;;;;;;;;;;6319950;28;19982;-74
2024/01/10 11:52:56;;;;;;;;;;;;;;;;;;6310178;28;19912;-74
2024/01/10 11:55:57;;;;;;;;;;;;;;;;;;6314695;28;19919;-73
2024/01/10 11:58:57;;;;;;;;;;;;;;;;;;6302530;28;19912;-72
2024/01/10 12:01:57;;;;;;;;;;;;;;;;;;6316953;28;19912;-72
2024/01/10 12:04:57;;;;;;;;;;;;;;;;;;6309275;28;20359;-71
2024/01/10 12:07:59;;;;;;;;;;;;;;;;;;6303095;28;19914;-71
2024/01/10 12:10:59;;;;;;;;;;;;;;;;;;6315917;28;20457;-72
2024/01/10 12:13:59;;;;;;;;;;;;;;;;;;6309536;28;19915;-72
2024/01/10 12:16:59;;;;;;;;;;;;;;;;;;6308032;28;19935;-71
2024/01/10 12:19:59;;;;;;;;;;;;;;;;;;6312567;28;19916;-71
2024/01/10 12:22:59;;;;;;;;;;;;;;;;;;6311764;28;19951;-71
2024/01/10 12:25:59;;;;;;;;;;;;;;;;;;6303079;28;20003;-71
2024/01/10 12:28:59;;;;;;;;;;;;;;;;;;6305617;28;20302;-72
2024/01/10 12:32:00;;;;;;;;;;;;;;;;;;6300809;28;19923;-72
2024/01/10 12:35:00;;;;;;;;;;;;;;;;;;6312642;28;20011;-72
2024/01/10 12:38:01;;;;;;;;;;;;;;;;;;6314219;28;19931;-72
2024/01/10 12:41:01;;;;;;;;;;;;;;;;;;6312811;28;19912;-72
2024/01/10 12:44:06;;;;;;;;;;;;;;;;;;6310054;28;19947;-72
2024/01/10 12:47:06;;;;;;;;;;;;;;;;;;6308667;28;19913;-72
2024/01/10 12:50:07;;;;;;;;;;;;;;;;;;6310448;28;19912;-72
2024/01/10 12:53:07;;;;;;;;;;;;;;;;;;6314904;28;19939;-72
2024/01/10 12:56:08;;;;;;;;;;;;;;;;;;6298569;28;20270;-72
2024/01/10 12:59:09;;;;;;;;;;;;;;;;;;6311378;28;19919;-72
2024/01/10 13:02:09;;;;;;;;;;;;;;;;;;6310634;28;20457;-72
2024/01/10 13:05:09;;;;;;;;;;;;;;;;;;6314698;28;19972;-73
2024/01/10 13:08:11;;;;;;;;;;;;;;;;;;6306555;28;19947;-72
2024/01/10 13:11:11;;;;;;;;;;;;;;;;;;6315892;28;19908;-72
2024/01/10 13:14:11;;;;;;;;;;;;;;;;;;6305655;28;19912;-72
2024/01/10 13:17:12;;;;;;;;;;;;;;;;;;6295699;28;20297;-72
2024/01/10 13:20:12;;;;;;;;;;;;;;;;;;6318797;28;20293;-73
2024/01/10 13:23:12;;;;;;;;;;;;;;;;;;6306276;28;20290;-73
2024/01/10 13:26:12;;;;;;;;;;;;;;;;;;6316643;28;19926;-73
2024/01/10 13:29:13;;;;;;;;;;;;;;;;;;6304976;28;19912;-73
2024/01/10 13:32:15;;;;;;;;;;;;;;;;;;6297820;28;20293;-73
2024/01/10 13:35:18;;;;;;;;;;;;;;;;;;6314835;28;20401;-73
2024/01/10 13:38:19;;;;;;;;;;;;;;;;;;6305802;28;19909;-73
2024/01/10 13:41:19;;;;;;;;;;;;;;;;;;6303541;28;19937;-73
2024/01/10 13:44:19;;;;;;;;;;;;;;;;;;6308034;28;20278;-73
2024/01/10 13:47:21;;;;;;;;;;;;;;;;;;6308862;28;19916;-73
2024/01/10 13:50:21;;;;;;;;;;;;;;;;;;6317229;28;19908;-73
2024/01/10 13:53:21;;;;;;;;;;;;;;;;;;6298161;28;20153;-73
2024/01/10 13:56:22;;;;;;;;;;;;;;;;;;6301815;28;19966;-74
2024/01/10 13:59:22;;;;;;;;;;;;;;;;;;6317234;28;20373;-73
2024/01/10 14:02:22;;;;;;;;;;;;;;;;;;6315856;28;19911;-73
2024/01/10 14:05:23;;;;;;;;;;;;;;;;;;6310379;28;19981;-74
2024/01/10 14:08:23;;;;;;;;;;;;;;;;;;6304468;28;19912;-74
2024/01/10 14:11:24;;;;;;;;;;;;;;;;;;6315645;28;19911;-74
2024/01/10 14:14:24;;;;;;;;;;;;;;;;;;6311590;28;20374;-74
2024/01/10 14:17:24;;;;;;;;;;;;;;;;;;6305495;28;20344;-74
2024/01/10 14:20:24;;;;;;;;;;;;;;;;;;6302900;28;20003;-74
2024/01/10 14:23:24;;;;;;;;;;;;;;;;;;6304527;28;19952;-74
2024/01/10 14:26:26;;;;;;;;;;;;;;;;;;6313480;28;19924;-74
2024/01/10 14:29:26;;;;;;;;;;;;;;;;;;6309650;28;19908;-74
2024/01/10 14:32:26;;;;;;;;;;;;;;;;;;6293298;28;20442;-73
2024/01/10 14:35:26;;;;;;;;;;;;;;;;;;6300511;28;19969;-73
2024/01/10 14:38:26;;;;;;;;;;;;;;;;;;6310571;28;19908;-73
2024/01/10 14:41:26;;;;;;;;;;;;;;;;;;6312538;28;19908;-73
2024/01/10 14:44:27;;;;;;;;;;;;;;;;;;6317245;28;19915;-73
2024/01/10 14:47:28;;;;;;;;;;;;;;;;;;6312778;28;19915;-74
2024/01/10 14:50:28;;;;;;;;;;;;;;;;;;6310379;28;20480;-73
2024/01/10 14:53:28;;;;;;;;;;;;;;;;;;6307309;28;19912;-73
2024/01/10 14:56:28;;;;;;;;;;;;;;;;;;6306689;28;19916;-73
2024/01/10 14:59:29;;;;;;;;;;;;;;;;;;6300379;28;19972;-74
2024/01/10 15:02:29;;;;;;;;;;;;;;;;;;6305396;28;20019;-74
2024/01/10 15:05:29;;;;;;;;;;;;;;;;;;6309743;28;20148;-75
2024/01/10 15:08:30;;;;;;;;;;;;;;;;;;6308232;28;20014;-75
2024/01/10 15:11:32;;;;;;;;;;;;;;;;;;6295393;28;19911;-75
2024/01/10 15:14:32;;;;;;;;;;;;;;;;;;6319269;28;20362;-73
2024/01/10 15:17:32;;;;;;;;;;;;;;;;;;6317177;28;19965;-73
2024/01/10 15:20:32;;;;;;;;;;;;;;;;;;6317910;28;19912;-73
2024/01/10 15:23:32;;;;;;;;;;;;;;;;;;6295153;28;19958;-74
2024/01/10 15:26:32;;;;;;;;;;;;;;;;;;6310097;28;20022;-74
2024/01/10 15:29:32;;;;;;;;;;;;;;;;;;6320069;28;19914;-74
2024/01/10 15:32:32;;;;;;;;;;;;;;;;;;6307800;28;20317;-74
2024/01/10 15:35:32;;;;;;;;;;;;;;;;;;6296264;28;20366;-74
2024/01/10 15:38:33;;;;;;;;;;;;;;;;;;6306230;28;20045;-74
2024/01/10 15:41:33;;;;;;;;;;;;;;;;;;6294974;28;19904;-74
2024/01/10 15:44:33;;;;;;;;;;;;;;;;;;6291838;28;20267;-74
2024/01/10 15:47:33;;;;;;;;;;;;;;;;;;6292174;28;20363;-74
2024/01/10 15:50:33;;;;;;;;;;;;;;;;;;6316929;28;19946;-75
2024/01/10 15:53:34;;;;;;;;;;;;;;;;;;6299634;28;19969;-75
2024/01/10 15:56:38;;;;;;;;;;;;;;;;;;6300528;28;19927;-75
2024/01/10 15:59:38;;;;;;;;;;;;;;;;;;6316301;28;20011;-75
2024/01/10 16:02:40;;;;;;;;;;;;;;;;;;6316479;28;19908;-75
2024/01/10 16:05:40;;;;;;;;;;;;;;;;;;6299927;28;19912;-77
2024/01/10 16:08:40;;;;;;;;;;;;;;;;;;6313727;28;19915;-77
2024/01/10 16:11:42;;;;;;;;;;;;;;;;;;6315748;28;19912;-77
2024/01/10 16:14:42;;;;;;;;;;;;;;;;;;6301064;28;19912;-77
2024/01/10 16:17:42;;;;;;;;;;;;;;;;;;6298232;28;19924;-77
2024/01/10 16:20:42;;;;;;;;;;;;;;;;;;6315664;28;19912;-76
2024/01/10 16:23:42;;;;;;;;;;;;;;;;;;6324783;28;20006;-76
2024/01/10 16:26:42;;;;;;;;;;;;;;;;;;6313462;28;19920;-74
2024/01/10 16:29:42;;;;;;;;;;;;;;;;;;6326239;28;19911;-75
2024/01/10 16:32:43;;;;;;;;;;;;;;;;;;6307001;28;19958;-75
2024/01/10 16:35:43;;;;;;;;;;;;;;;;;;6335000;28;20273;-75
2024/01/10 16:38:43;;;;;;;;;;;;;;;;;;6326146;28;19919;-76
2024/01/10 16:41:43;;;;;;;;;;;;;;;;;;6331525;28;19912;-76
2024/01/10 16:44:43;;;;;;;;;;;;;;;;;;6313389;28;19919;-76
2024/01/10 16:47:43;;;;;;;;;;;;;;;;;;6316492;28;20571;-76
2024/01/10 16:50:43;;;;;;;;;;;;;;;;;;6316009;28;19912;-76
2024/01/10 16:53:43;;;;;;;;;;;;;;;;;;6300929;28;19908;-76
2024/01/10 16:56:44;;;;;;;;;;;;;;;;;;6314258;28;19959;-76
2024/01/10 16:59:44;;;;;;;;;;;;;;;;;;6327260;28;19915;-76
2024/01/10 17:02:44;;;;;;;;;;;;;;;;;;6329688;28;20285;-75
2024/01/10 17:05:44;;;;;;;;;;;;;;;;;;6336305;28;19911;-75
2024/01/10 17:08:44;;;;;;;;;;;;;;;;;;6322114;28;19947;-74
2024/01/10 17:11:45;;;;;;;;;;;;;;;;;;6309286;28;19915;-75
2024/01/10 17:14:45;;;;;;;;;;;;;;;;;;6332659;28;20380;-75
2024/01/10 17:17:46;;;;;;;;;;;;;;;;;;6330071;28;19912;-76
2024/01/10 17:20:46;;;;;;;;;;;;;;;;;;6337524;28;19992;-75
2024/01/10 17:23:46;;;;;;;;;;;;;;;;;;6321052;28;20302;-75
2024/01/10 17:26:46;;;;;;;;;;;;;;;;;;6315547;28;22019;-74
2024/01/10 17:29:46;;;;;;;;;;;;;;;;;;6295376;28;19957;-75
2024/01/10 17:32:47;;;;;;;;;;;;;;;;;;6306436;28;20273;-75
2024/01/10 17:35:48;;;;;;;;;;;;;;;;;;6295692;28;19912;-72
2024/01/10 17:38:48;;;;;;;;;;;;;;;;;;6307246;28;20347;-72
2024/01/10 17:41:48;;;;;;;;;;;;;;;;;;6311828;28;19951;-72
2024/01/10 17:44:48;;;;;;;;;;;;;;;;;;6322894;28;19919;-73
2024/01/10 17:47:48;;;;;;;;;;;;;;;;;;6332972;28;19911;-73
2024/01/10 17:50:49;;;;;;;;;;;;;;;;;;6329388;28;20469;-73
2024/01/10 17:53:49;;;;;;;;;;;;;;;;;;6307307;28;19958;-73
2024/01/10 17:56:49;;;;;;;;;;;;;;;;;;6323636;28;20392;-72
2024/01/10 17:59:49;;;;;;;;;;;;;;;;;;6334583;28;20340;-73
2024/01/10 18:02:49;;;;;;;;;;;;;;;;;;6329642;28;19916;-73
2024/01/10 18:05:49;;;;;;;;;;;;;;;;;;6326932;28;20338;-73
2024/01/10 18:08:50;;;;;;;;;;;;;;;;;;6313831;28;20038;-74
2024/01/10 18:11:51;;;;;;;;;;;;;;;;;;6315598;28;19916;-73
2024/01/10 18:14:51;;;;;;;;;;;;;;;;;;6332339;28;19915;-73
2024/01/10 18:17:51;;;;;;;;;;;;;;;;;;6332210;28;19908;-73
2024/01/10 18:20:51;;;;;;;;;;;;;;;;;;6312320;28;19961;-73
2024/01/10 18:23:51;;;;;;;;;;;;;;;;;;6309200;28;19908;-73
2024/01/10 18:26:51;;;;;;;;;;;;;;;;;;6301431;28;19969;-72
2024/01/10 18:29:51;;;;;;;;;;;;;;;;;;6305649;28;20410;-72
2024/01/10 18:32:52;;;;;;;;;;;;;;;;;;6301739;28;19933;-72
2024/01/10 18:35:52;;;;;;;;;;;;;;;;;;6312899;28;19912;-73
2024/01/10 18:38:52;;;;;;;;;;;;;;;;;;6303187;28;19915;-73
2024/01/10 18:41:52;;;;;;;;;;;;;;;;;;6320533;28;19966;-73
2024/01/10 18:44:52;;;;;;;;;;;;;;;;;;6331715;28;19907;-73
2024/01/10 18:47:52;;;;;;;;;;;;;;;;;;6315834;28;19970;-73
2024/01/10 18:50:52;;;;;;;;;;;;;;;;;;6320312;28;19916;-73
2024/01/10 18:53:53;;;;;;;;;;;;;;;;;;6315702;28;20247;-71
2024/01/10 18:56:53;;;;;;;;;;;;;;;;;;6314444;28;19919;-76
2024/01/10 18:59:53;;;;;;;;;;;;;;;;;;6293249;28;19908;-76
2024/01/10 19:02:54;;;;;;;;;;;;;;;;;;6318954;28;20322;-75
2024/01/10 19:05:54;;;;;;;;;;;;;;;;;;6318108;28;19907;-76
2024/01/10 19:12:08;;;;;;;0.70;0.70;;;;;;;;;;6306319;27;20139;-76
2024/01/10 19:15:08;;;;;;;0.80;0.80;;;;;;;;;;6311699;28;20371;-77
2024/01/10 19:18:09;;;;;;;0.80;0.80;;;;;;;;;;6295567;28;20008;-76
2024/01/10 19:21:09;;;;;;;0.63;0.63;;;;;;;;;;6313938;28;20497;-76
2024/01/10 19:24:10;;;;;;;0.73;0.73;;;;;;;;;;6311159;28;20036;-76
2024/01/10 19:27:10;;;;;;;0.80;0.80;;;;;;;;;;6299037;28;20035;-76
2024/01/10 19:30:15;;;;;;;0.70;0.70;;;;;;;;;;6312457;28;20020;-77
2024/01/10 19:33:15;;;;;;;0.80;0.80;;;;;;;;;;6310427;28;20496;-76
2024/01/10 19:36:20;;;;;;;0.70;0.70;;;;;;;;;;6313184;28;20024;-76
2024/01/10 19:39:20;;;;;;;0.68;0.68;;;;;;;;;;6305947;28;20013;-76
2024/01/10 19:42:21;;;;;;;0.90;0.90;;;;;;;;;;6310123;28;20035;-77
2024/01/10 19:45:22;;;;;;;0.70;0.70;;;;;;;;;;6318505;28;20026;-77
2024/01/10 19:48:23;;;;;;;;;;;;;;;;;;6306798;28;20024;-76
2024/01/10 19:51:23;;;;;;;0.80;0.80;;;;;;;;;;6309376;28;19920;-77
2024/01/10 19:54:24;;;;;;;0.70;0.70;;;;;;;;;;6306728;28;20012;-73
2024/01/10 19:57:24;;;;;;;0.70;0.70;;;;;;;;;;6311022;28;20104;-72
2024/01/10 20:00:24;;;;;;;0.80;0.80;;;;;;;;;;6302128;28;20024;-72
2024/01/10 20:03:25;;;;;;;0.70;0.70;;;;;;;;;;6306984;28;20420;-72
2024/01/10 20:06:26;;;;;;;;;;;;;;;;;;6306611;28;20024;-76
2024/01/10 20:09:28;;;;;;;0.70;0.70;;;;;;;;;;6296120;28;20351;-76